createdAt,value
2019-02-11T00:02:12.614Z,5.30
2019-02-11T00:04:41.020Z,5.20
2019-02-11T00:07:09.461Z,5.30
2019-02-11T00:09:37.942Z,5.20
2019-02-11T00:12:06.382Z,5.10
2019-02-11T00:14:34.790Z,5.00
2019-02-11T00:17:03.233Z,5.00
2019-02-11T00:19:31.653Z,5.10
2019-02-11T00:22:00.092Z,5.00
2019-02-11T00:24:28.551Z,4.90
2019-02-11T00:26:56.968Z,4.90
2019-02-11T00:29:25.420Z,4.90
2019-02-11T00:31:53.812Z,4.90
2019-02-11T00:34:22.248Z,4.90
2019-02-11T00:36:50.677Z,5.00
2019-02-11T00:39:19.099Z,5.00
2019-02-11T00:41:47.521Z,5.00
2019-02-11T00:44:15.948Z,5.00
2019-02-11T00:46:44.429Z,5.00
2019-02-11T00:49:12.825Z,4.90
2019-02-11T00:51:41.267Z,4.90
2019-02-11T00:54:09.692Z,5.00
2019-02-11T00:56:38.142Z,4.70
2019-02-11T00:59:06.556Z,4.50
2019-02-11T01:01:34.950Z,4.40
2019-02-11T01:04:03.407Z,4.20
2019-02-11T01:06:31.829Z,4.10
2019-02-11T01:09:00.258Z,3.70
2019-02-11T01:11:28.850Z,3.40
2019-02-11T01:13:57.277Z,3.20
2019-02-11T01:16:25.778Z,3.10
2019-02-11T01:18:54.201Z,3.10
2019-02-11T01:21:22.630Z,3.10
2019-02-11T01:23:51.066Z,3.10
2019-02-11T01:26:19.489Z,3.20
2019-02-11T01:28:47.923Z,3.30
2019-02-11T01:31:16.349Z,3.40
2019-02-11T01:33:44.760Z,3.40
2019-02-11T01:36:13.193Z,3.40
2019-02-11T01:38:41.645Z,3.50
2019-02-11T01:41:10.051Z,3.50
2019-02-11T01:43:38.502Z,3.60
2019-02-11T01:46:06.910Z,3.60
2019-02-11T01:48:35.327Z,3.70
2019-02-11T01:51:03.768Z,3.70
2019-02-11T01:53:32.190Z,3.70
2019-02-11T01:56:00.616Z,3.70
2019-02-11T01:58:29.037Z,3.70
2019-02-11T02:00:57.453Z,3.80
2019-02-11T02:03:25.933Z,3.90
2019-02-11T02:05:54.375Z,3.80
2019-02-11T02:08:22.790Z,3.80
2019-02-11T02:10:51.222Z,3.90
2019-02-11T02:13:19.636Z,3.90
2019-02-11T02:15:48.092Z,3.90
2019-02-11T02:18:16.493Z,3.90
2019-02-11T02:20:44.910Z,3.90
2019-02-11T02:23:13.339Z,4.00
2019-02-11T02:25:41.759Z,4.00
2019-02-11T02:28:10.203Z,4.00
2019-02-11T02:30:38.614Z,4.00
2019-02-11T02:33:07.263Z,4.00
2019-02-11T02:35:35.743Z,3.90
2019-02-11T02:38:04.160Z,3.80
2019-02-11T02:40:32.599Z,3.80
2019-02-11T02:43:01.040Z,3.60
2019-02-11T02:45:29.442Z,3.50
2019-02-11T02:47:57.853Z,3.50
2019-02-11T02:50:26.296Z,3.40
2019-02-11T02:52:54.712Z,3.40
2019-02-11T02:55:23.148Z,3.50
2019-02-11T02:57:52.509Z,3.40
2019-02-11T03:00:20.913Z,3.40
2019-02-11T03:02:49.327Z,3.50
2019-02-11T03:05:17.760Z,3.50
2019-02-11T03:07:46.318Z,3.50
2019-02-11T03:10:14.733Z,3.50
2019-02-11T03:12:43.164Z,3.50
2019-02-11T03:15:11.840Z,3.60
2019-02-11T03:17:40.283Z,3.70
2019-02-11T03:20:09.431Z,3.70
2019-02-11T03:22:37.868Z,3.70
2019-02-11T03:25:07.824Z,3.70
2019-02-11T03:27:36.249Z,3.60
2019-02-11T03:30:07.095Z,3.60
2019-02-11T03:32:35.553Z,3.70
2019-02-11T03:35:04.815Z,3.60
2019-02-11T03:37:33.242Z,3.80
2019-02-11T03:40:01.751Z,3.70
2019-02-11T03:42:30.288Z,3.60
2019-02-11T03:44:58.708Z,3.60
2019-02-11T03:47:27.112Z,3.70
2019-02-11T03:49:56.450Z,3.60
2019-02-11T03:52:24.929Z,3.60
2019-02-11T03:54:53.375Z,3.50
2019-02-11T03:57:21.840Z,3.40
2019-02-11T03:59:50.251Z,3.30
2019-02-11T04:02:18.661Z,3.40
2019-02-11T04:04:47.098Z,3.40
2019-02-11T04:07:15.510Z,3.50
2019-02-11T04:09:43.971Z,3.60
2019-02-11T04:12:12.462Z,3.60
2019-02-11T04:14:40.897Z,3.50
2019-02-11T04:17:09.332Z,3.50
2019-02-11T04:19:37.744Z,3.40
2019-02-11T04:22:07.571Z,3.30
2019-02-11T04:24:35.986Z,3.30
2019-02-11T04:27:04.724Z,3.30
2019-02-11T04:29:33.191Z,3.30
2019-02-11T04:32:01.701Z,3.20
2019-02-11T04:34:30.194Z,3.20
2019-02-11T04:36:58.619Z,3.20
2019-02-11T04:39:27.087Z,3.30
2019-02-11T04:41:55.587Z,3.30
2019-02-11T04:44:24.003Z,3.40
2019-02-11T04:46:52.421Z,3.30
2019-02-11T04:49:20.859Z,3.30
2019-02-11T04:51:49.271Z,3.20
2019-02-11T04:54:17.720Z,3.20
2019-02-11T04:56:46.119Z,3.20
2019-02-11T04:59:14.541Z,3.10
2019-02-11T05:01:42.965Z,3.20
2019-02-11T05:04:11.380Z,3.10
2019-02-11T05:06:39.800Z,3.20
2019-02-11T05:09:08.236Z,3.20
2019-02-11T05:11:36.652Z,3.20
2019-02-11T05:14:05.094Z,3.30
2019-02-11T05:16:33.600Z,3.40
2019-02-11T05:19:02.024Z,3.40
2019-02-11T05:21:30.431Z,3.40
2019-02-11T05:23:58.863Z,3.30
2019-02-11T05:26:27.311Z,3.20
2019-02-11T05:28:55.729Z,3.20
2019-02-11T05:31:24.166Z,3.10
2019-02-11T05:33:52.603Z,3.20
2019-02-11T05:36:21.039Z,3.10
2019-02-11T05:38:49.470Z,3.20
2019-02-11T05:41:17.878Z,3.20
2019-02-11T05:43:46.309Z,3.20
2019-02-11T05:46:14.712Z,3.30
2019-02-11T05:48:43.158Z,3.30
2019-02-11T05:51:11.564Z,3.30
2019-02-11T05:53:40.008Z,3.20
2019-02-11T05:56:08.428Z,3.30
2019-02-11T05:58:36.832Z,3.20
2019-02-11T06:01:05.259Z,3.30
2019-02-11T06:03:33.682Z,3.30
2019-02-11T06:06:02.097Z,3.30
2019-02-11T06:08:30.500Z,3.20
2019-02-11T06:10:58.937Z,3.10
2019-02-11T06:13:27.371Z,3.20
2019-02-11T06:15:55.802Z,3.30
2019-02-11T06:18:24.216Z,3.30
2019-02-11T06:20:52.712Z,3.20
2019-02-11T06:23:21.213Z,3.30
2019-02-11T06:25:49.652Z,3.30
2019-02-11T06:28:18.078Z,3.20
2019-02-11T06:30:46.486Z,3.10
2019-02-11T06:33:14.918Z,3.00
2019-02-11T06:35:43.346Z,3.10
2019-02-11T06:38:11.780Z,3.00
2019-02-11T06:40:40.203Z,2.90
2019-02-11T06:43:08.647Z,2.80
2019-02-11T06:45:37.039Z,2.90
2019-02-11T06:48:05.550Z,2.90
2019-02-11T06:50:33.983Z,2.90
2019-02-11T06:53:02.415Z,2.90
2019-02-11T06:55:30.912Z,2.90
2019-02-11T06:57:59.359Z,2.90
2019-02-11T07:00:27.779Z,3.10
2019-02-11T07:02:56.214Z,3.10
2019-02-11T07:05:24.655Z,3.20
2019-02-11T07:07:53.057Z,3.20
2019-02-11T07:10:21.500Z,3.20
2019-02-11T07:12:49.893Z,3.20
2019-02-11T07:15:22.266Z,3.30
2019-02-11T07:17:48.534Z,3.40
2019-02-11T07:20:16.973Z,3.20
2019-02-11T07:22:45.384Z,3.20
2019-02-11T07:25:13.869Z,3.20
2019-02-11T07:27:42.297Z,3.20
2019-02-11T07:30:13.226Z,3.20
2019-02-11T07:32:41.659Z,3.10
2019-02-11T07:35:11.650Z,3.10
2019-02-11T07:37:40.074Z,3.30
2019-02-11T07:40:12.297Z,3.10
2019-02-11T07:42:45.300Z,3.20
2019-02-11T07:45:15.375Z,3.10
2019-02-11T07:47:43.785Z,3.00
2019-02-11T07:50:12.298Z,3.10
2019-02-11T07:52:40.709Z,3.10
2019-02-11T07:55:09.251Z,3.30
2019-02-11T07:57:37.707Z,3.30
2019-02-11T08:00:08.734Z,3.20
2019-02-11T08:02:37.171Z,3.20
2019-02-11T08:05:06.703Z,3.20
2019-02-11T08:07:35.108Z,3.30
2019-02-11T08:10:04.481Z,3.20
2019-02-11T08:12:33.493Z,3.30
2019-02-11T08:15:01.966Z,3.30
2019-02-11T08:17:30.490Z,3.20
2019-02-11T08:19:58.930Z,3.30
2019-02-11T08:22:27.386Z,3.40
2019-02-11T08:24:55.818Z,3.50
2019-02-11T08:27:24.230Z,3.50
2019-02-11T08:29:52.653Z,3.40
2019-02-11T08:32:21.078Z,3.50
2019-02-11T08:34:51.759Z,3.60
2019-02-11T08:37:20.180Z,3.60
2019-02-11T08:39:48.589Z,3.60
2019-02-11T08:42:17.043Z,3.70
2019-02-11T08:44:45.520Z,3.70
2019-02-11T08:47:13.943Z,3.90
2019-02-11T08:49:42.453Z,3.80
2019-02-11T08:52:10.866Z,4.00
2019-02-11T08:54:39.682Z,4.00
2019-02-11T08:57:08.099Z,4.10
2019-02-11T08:59:36.513Z,4.20
2019-02-11T09:02:05.214Z,4.20
2019-02-11T09:04:33.627Z,4.10
2019-02-11T09:07:02.071Z,3.90
2019-02-11T09:09:30.470Z,4.00
2019-02-11T09:11:58.901Z,4.00
2019-02-11T09:14:27.324Z,4.40
2019-02-11T09:16:55.734Z,4.40
2019-02-11T09:19:24.149Z,4.50
2019-02-11T09:21:52.587Z,4.50
2019-02-11T09:24:20.989Z,4.60
2019-02-11T09:26:49.422Z,4.70
2019-02-11T09:29:17.833Z,4.70
2019-02-11T09:31:46.256Z,4.70
2019-02-11T09:34:14.677Z,4.70
2019-02-11T09:36:43.158Z,4.70
2019-02-11T09:39:11.726Z,4.80
2019-02-11T09:41:40.273Z,5.00
2019-02-11T09:44:08.706Z,5.00
2019-02-11T09:46:37.109Z,5.00
2019-02-11T09:49:05.593Z,5.10
2019-02-11T09:51:36.541Z,5.20
2019-02-11T09:54:05.386Z,5.10
2019-02-11T09:56:33.817Z,5.20
2019-02-11T09:59:02.242Z,5.40
2019-02-11T10:01:30.727Z,5.20
2019-02-11T10:03:59.148Z,5.30
2019-02-11T10:06:27.677Z,5.40
2019-02-11T10:08:56.190Z,5.40
2019-02-11T10:11:24.594Z,5.30
2019-02-11T10:13:53.027Z,5.40
2019-02-11T10:16:22.308Z,5.40
2019-02-11T10:18:50.985Z,5.50
2019-02-11T10:21:19.500Z,5.50
2019-02-11T10:23:47.918Z,5.50
2019-02-11T10:26:16.346Z,5.30
2019-02-11T10:28:44.748Z,5.20
2019-02-11T10:31:13.180Z,5.20
2019-02-11T10:33:41.597Z,5.30
2019-02-11T10:36:10.110Z,5.40
2019-02-11T10:38:38.542Z,5.40
2019-02-11T10:41:07.061Z,5.40
2019-02-11T10:43:35.500Z,5.40
2019-02-11T10:46:04.000Z,5.40
2019-02-11T10:48:32.408Z,5.50
2019-02-11T10:51:00.841Z,5.60
2019-02-11T10:53:29.261Z,5.60
2019-02-11T10:55:57.662Z,5.80
2019-02-11T10:58:26.167Z,5.80
2019-02-11T11:00:54.650Z,5.90
2019-02-11T11:03:23.065Z,5.80
2019-02-11T11:05:51.577Z,5.80
2019-02-11T11:08:20.038Z,5.80
2019-02-11T11:10:48.565Z,5.80
2019-02-11T11:13:16.970Z,5.70
2019-02-11T11:15:45.390Z,5.70
2019-02-11T11:18:13.846Z,5.70
2019-02-11T11:20:42.327Z,5.70
2019-02-11T11:23:10.819Z,5.80
2019-02-11T11:25:39.222Z,5.80
2019-02-11T11:28:07.643Z,5.90
2019-02-11T11:30:37.793Z,6.10
2019-02-11T11:33:06.348Z,6.30
2019-02-11T11:35:34.830Z,6.60
2019-02-11T11:38:03.247Z,6.70
2019-02-11T11:40:32.224Z,6.80
2019-02-11T11:43:00.635Z,6.60
2019-02-11T11:45:29.104Z,6.50
2019-02-11T11:47:57.691Z,6.40
2019-02-11T11:50:26.093Z,6.40
2019-02-11T11:52:54.525Z,6.50
2019-02-11T11:55:23.963Z,6.50
2019-02-11T11:57:52.515Z,6.60
2019-02-11T12:00:29.631Z,6.60
2019-02-11T12:03:02.918Z,6.60
2019-02-11T12:05:28.237Z,6.70
2019-02-11T12:07:56.875Z,6.70
2019-02-11T12:10:25.683Z,6.70
2019-02-11T12:12:54.098Z,6.80
2019-02-11T12:15:24.659Z,6.90
2019-02-11T12:17:53.101Z,6.90
2019-02-11T12:20:21.547Z,6.90
2019-02-11T12:22:49.986Z,6.80
2019-02-11T12:25:19.171Z,6.80
2019-02-11T12:27:47.614Z,7.00
2019-02-11T12:30:24.228Z,7.00
2019-02-11T12:32:54.914Z,6.90
2019-02-11T12:35:22.872Z,6.90
2019-02-11T12:37:51.430Z,7.00
2019-02-11T12:40:19.988Z,7.00
2019-02-11T12:42:48.434Z,6.80
2019-02-11T12:45:19.642Z,6.90
2019-02-11T12:47:48.315Z,6.90
2019-02-11T12:50:18.351Z,7.10
2019-02-11T12:52:46.993Z,7.10
2019-02-11T12:55:16.660Z,7.10
2019-02-11T12:57:45.154Z,7.10
2019-02-11T13:00:24.135Z,7.10
2019-02-11T13:02:52.711Z,7.20
2019-02-11T13:05:23.661Z,7.20
2019-02-11T13:07:51.491Z,7.30
2019-02-11T13:10:20.405Z,7.50
2019-02-11T13:12:49.078Z,7.40
2019-02-11T13:15:52.980Z,7.40
2019-02-11T13:17:49.130Z,7.20
2019-02-11T13:20:18.342Z,7.30
2019-02-11T13:22:46.802Z,7.50
2019-02-11T13:25:18.880Z,7.80
2019-02-11T13:27:47.710Z,7.90
2019-02-11T13:30:20.744Z,7.80
2019-02-11T13:32:49.162Z,8.00
2019-02-11T13:35:17.692Z,8.10
2019-02-11T13:37:46.307Z,8.10
2019-02-11T13:40:14.878Z,8.10
2019-02-11T13:42:43.442Z,8.20
2019-02-11T13:45:19.960Z,8.20
2019-02-11T13:47:55.326Z,8.10
2019-02-11T13:50:26.876Z,8.00
2019-02-11T13:52:55.854Z,7.20
2019-02-11T13:55:29.325Z,7.10
2019-02-11T13:57:54.825Z,7.30
2019-02-11T14:00:28.948Z,7.50
2019-02-11T14:02:59.024Z,7.80
2019-02-11T14:05:28.737Z,8.10
2019-02-11T14:07:59.599Z,8.30
2019-02-11T14:10:28.356Z,8.50
2019-02-11T14:12:56.858Z,8.60
2019-02-11T14:15:25.512Z,8.50
2019-02-11T14:18:10.623Z,8.30
2019-02-11T14:20:28.066Z,8.20
2019-02-11T14:22:56.563Z,7.80
2019-02-11T14:25:40.924Z,7.70
2019-02-11T14:27:55.266Z,7.50
2019-02-11T14:30:23.827Z,7.30
2019-02-11T14:32:52.318Z,7.10
2019-02-11T14:35:21.273Z,7.10
2019-02-11T14:37:49.992Z,7.00
2019-02-11T14:40:18.675Z,7.00
2019-02-11T14:42:47.223Z,6.60
2019-02-11T14:45:17.541Z,6.30
2019-02-11T14:47:46.013Z,5.30
2019-02-11T14:50:14.505Z,4.80
2019-02-11T14:52:42.994Z,4.40
2019-02-11T14:55:11.981Z,4.30
2019-02-11T14:57:40.403Z,4.20
2019-02-11T15:00:13.699Z,4.40
2019-02-11T15:02:42.140Z,4.60
2019-02-11T15:05:10.561Z,4.70
2019-02-11T15:07:38.980Z,4.90
2019-02-11T15:10:10.606Z,4.90
2019-02-11T15:12:39.014Z,4.80
2019-02-11T15:15:09.498Z,4.70
2019-02-11T15:17:38.950Z,4.60
2019-02-11T15:20:09.829Z,4.60
2019-02-11T15:22:38.231Z,4.40
2019-02-11T15:25:09.909Z,4.40
2019-02-11T15:27:38.340Z,4.20
2019-02-11T15:30:09.766Z,4.20
2019-02-11T15:32:38.198Z,4.20
2019-02-11T15:35:08.351Z,4.20
2019-02-11T15:37:36.872Z,4.10
2019-02-11T15:40:10.754Z,4.00
2019-02-11T15:42:39.181Z,3.80
2019-02-11T15:45:10.398Z,3.70
2019-02-11T15:47:38.921Z,3.70
2019-02-11T15:50:10.367Z,3.60
2019-02-11T15:52:38.848Z,3.50
2019-02-11T15:55:10.856Z,3.40
2019-02-11T15:57:39.287Z,3.30
2019-02-11T16:00:13.333Z,3.20
2019-02-11T16:02:41.755Z,3.10
2019-02-11T16:05:15.985Z,3.10
2019-02-11T16:07:40.455Z,3.10
2019-02-11T16:10:11.774Z,3.20
2019-02-11T16:12:40.214Z,3.00
2019-02-11T16:15:10.660Z,2.90
2019-02-11T16:17:39.073Z,2.90
2019-02-11T16:20:14.439Z,2.80
2019-02-11T16:22:42.486Z,2.70
2019-02-11T16:25:15.326Z,2.60
2019-02-11T16:27:43.743Z,2.50
2019-02-11T16:30:16.349Z,2.60
2019-02-11T16:32:44.821Z,2.50
2019-02-11T16:35:15.852Z,2.60
2019-02-11T16:37:44.267Z,2.60
2019-02-11T16:40:15.412Z,2.60
2019-02-11T16:42:43.926Z,2.60
2019-02-11T16:45:12.357Z,2.70
2019-02-11T16:47:40.765Z,2.70
2019-02-11T16:50:11.438Z,2.70
2019-02-11T16:52:39.931Z,2.90
2019-02-11T16:55:11.153Z,2.90
2019-02-11T16:57:39.599Z,2.90
2019-02-11T17:00:16.401Z,2.90
2019-02-11T17:02:44.834Z,2.90
2019-02-11T17:05:13.777Z,2.80
2019-02-11T17:07:42.525Z,2.70
2019-02-11T17:10:12.934Z,2.70
2019-02-11T17:12:41.394Z,2.70
2019-02-11T17:15:15.330Z,2.80
2019-02-11T17:17:43.772Z,2.80
2019-02-11T17:20:14.422Z,2.90
2019-02-11T17:22:42.892Z,2.90
2019-02-11T17:25:12.469Z,2.90
2019-02-11T17:27:40.861Z,2.90
2019-02-11T17:30:11.983Z,2.90
2019-02-11T17:32:40.421Z,3.00
2019-02-11T17:35:09.991Z,3.10
2019-02-11T17:37:38.384Z,3.10
2019-02-11T17:40:12.254Z,3.10
2019-02-11T17:42:40.830Z,3.00
2019-02-11T17:45:12.341Z,3.00
2019-02-11T17:47:40.754Z,3.00
2019-02-11T17:50:10.720Z,3.00
2019-02-11T17:52:39.235Z,3.10
2019-02-11T17:55:10.498Z,3.20
2019-02-11T17:57:38.889Z,3.20
2019-02-11T18:00:21.611Z,3.20
2019-02-11T18:02:50.012Z,3.30
2019-02-11T18:05:18.438Z,3.40
2019-02-11T18:07:46.890Z,3.40
2019-02-11T18:10:15.301Z,3.30
2019-02-11T18:12:43.704Z,3.30
2019-02-11T18:15:12.307Z,3.50
2019-02-11T18:17:40.726Z,3.40
2019-02-11T18:20:09.792Z,3.40
2019-02-11T18:22:38.309Z,3.40
2019-02-11T18:25:08.477Z,3.40
2019-02-11T18:27:36.895Z,3.40
2019-02-11T18:30:12.387Z,3.30
2019-02-11T18:32:40.811Z,3.30
2019-02-11T18:35:12.304Z,3.30
2019-02-11T18:37:40.803Z,3.30
2019-02-11T18:40:12.164Z,3.30
2019-02-11T18:42:40.713Z,3.30
2019-02-11T18:45:13.895Z,3.40
2019-02-11T18:47:42.301Z,3.40
2019-02-11T18:50:15.410Z,3.40
2019-02-11T18:52:44.303Z,3.30
2019-02-11T18:55:20.531Z,3.30
2019-02-11T18:57:49.038Z,3.30
2019-02-11T19:00:19.681Z,3.20
2019-02-11T19:02:49.031Z,3.30
2019-02-11T19:05:18.150Z,3.30
2019-02-11T19:07:46.744Z,3.40
2019-02-11T19:10:16.799Z,3.30
2019-02-11T19:12:45.357Z,3.20
2019-02-11T19:15:18.123Z,3.20
2019-02-11T19:17:46.719Z,3.20
2019-02-11T19:20:17.229Z,3.20
2019-02-11T19:22:45.782Z,3.20
2019-02-11T19:25:14.388Z,3.20
2019-02-11T19:27:42.806Z,3.20
2019-02-11T19:30:20.936Z,3.20
2019-02-11T19:32:49.628Z,3.30
2019-02-11T19:35:18.151Z,3.30
2019-02-11T19:37:46.550Z,3.30
2019-02-11T19:40:20.512Z,3.40
2019-02-11T19:42:49.234Z,3.40
2019-02-11T19:45:42.100Z,3.40
2019-02-11T19:48:10.520Z,3.50
2019-02-11T19:50:38.975Z,3.60
2019-02-11T19:53:07.383Z,3.50
2019-02-11T19:55:35.820Z,3.50
2019-02-11T19:58:04.243Z,3.60
2019-02-11T20:00:32.738Z,3.70
2019-02-11T20:03:01.138Z,3.70
2019-02-11T20:05:29.629Z,3.70
2019-02-11T20:07:58.040Z,3.70
2019-02-11T20:10:26.486Z,3.70
2019-02-11T20:12:54.922Z,3.60
2019-02-11T20:15:26.354Z,3.60
2019-02-11T20:17:54.784Z,3.50
2019-02-11T20:20:24.609Z,3.50
2019-02-11T20:22:56.865Z,3.50
2019-02-11T20:25:25.258Z,3.60
2019-02-11T20:27:53.671Z,3.50
2019-02-11T20:30:29.702Z,3.50
2019-02-11T20:32:58.128Z,3.60
2019-02-11T20:35:26.570Z,3.70
2019-02-11T20:37:54.959Z,3.60
2019-02-11T20:40:28.130Z,3.60
2019-02-11T20:42:56.603Z,3.50
2019-02-11T20:45:29.197Z,3.50
2019-02-11T20:47:57.630Z,3.40
2019-02-11T20:50:26.025Z,3.40
2019-02-11T20:52:54.442Z,3.30
2019-02-11T20:55:23.138Z,3.40
2019-02-11T20:57:59.956Z,3.30
2019-02-11T21:00:28.466Z,3.20
2019-02-11T21:02:57.013Z,3.00
2019-02-11T21:05:25.801Z,3.00
2019-02-11T21:07:54.462Z,3.00
2019-02-11T21:10:26.301Z,3.00
2019-02-11T21:12:54.718Z,3.00
2019-02-11T21:15:23.857Z,3.00
2019-02-11T21:17:52.365Z,2.90
2019-02-11T21:20:32.619Z,2.90
2019-02-11T21:23:01.104Z,2.80
2019-02-11T21:25:29.582Z,2.80
2019-02-11T21:27:58.031Z,2.70
2019-02-11T21:30:26.453Z,2.70
2019-02-11T21:32:54.865Z,2.60
2019-02-11T21:35:23.289Z,2.80
2019-02-11T21:37:51.718Z,2.60
2019-02-11T21:40:20.128Z,2.50
2019-02-11T21:42:48.526Z,2.40
2019-02-11T21:45:16.941Z,2.30
2019-02-11T21:47:45.452Z,2.20
2019-02-11T21:50:16.478Z,2.20
2019-02-11T21:52:44.878Z,2.20
2019-02-11T21:55:15.267Z,2.10
2019-02-11T21:57:43.692Z,2.10
2019-02-11T22:00:17.720Z,2.00
2019-02-11T22:02:46.300Z,1.90
2019-02-11T22:05:14.880Z,1.90
2019-02-11T22:07:43.301Z,1.80
2019-02-11T22:10:17.367Z,1.90
2019-02-11T22:12:45.793Z,1.80
2019-02-11T22:15:14.962Z,1.80
2019-02-11T22:17:43.458Z,1.70
2019-02-11T22:20:17.194Z,1.80
2019-02-11T22:22:45.928Z,1.70
2019-02-11T22:25:14.466Z,1.60
2019-02-11T22:27:42.904Z,1.60
2019-02-11T22:30:20.170Z,1.60
2019-02-11T22:32:48.662Z,1.60
2019-02-11T22:35:17.169Z,1.60
2019-02-11T22:37:46.436Z,1.70
2019-02-11T22:40:15.093Z,1.90
2019-02-11T22:42:43.621Z,1.90
2019-02-11T22:45:20.856Z,2.00
2019-02-11T22:47:49.268Z,2.10
2019-02-11T22:50:17.753Z,2.10
2019-02-11T22:52:46.174Z,2.10
2019-02-11T22:55:15.438Z,2.10
2019-02-11T22:57:43.860Z,2.20
2019-02-11T23:00:15.361Z,2.20
2019-02-11T23:02:43.794Z,2.20
2019-02-11T23:05:12.238Z,2.30
2019-02-11T23:07:40.688Z,2.30
2019-02-11T23:10:09.162Z,2.40
2019-02-11T23:12:37.607Z,2.40
2019-02-11T23:15:08.559Z,2.50
2019-02-11T23:17:37.034Z,2.50
2019-02-11T23:20:07.258Z,2.60
2019-02-11T23:22:35.683Z,2.60
2019-02-11T23:25:04.441Z,2.60
2019-02-11T23:27:32.952Z,2.60
2019-02-11T23:30:01.463Z,2.60
2019-02-11T23:32:30.057Z,2.50
2019-02-11T23:34:58.540Z,2.50
2019-02-11T23:37:26.953Z,2.60
2019-02-11T23:39:56.351Z,2.60
2019-02-11T23:42:24.777Z,2.50
2019-02-11T23:45:00.992Z,2.60
2019-02-11T23:47:29.396Z,2.60
2019-02-11T23:50:04.416Z,2.60
2019-02-11T23:52:32.894Z,2.60
2019-02-11T23:55:01.328Z,2.70
2019-02-11T23:57:29.735Z,2.70
2019-02-11T23:59:58.151Z,2.80
